sensor_id;sensor_type;location;lat;lon;timestamp;P1;durP1;ratioP1;P2;durP2;ratioP2
39140;SDS011;24875;48.436;10.298;2023-02-15T00:00:22;34.57;;;9.50;;
39140;SDS011;24875;48.436;10.298;2023-02-15T00:02:49;24.57;;;8.40;;
39140;SDS011;24875;48.436;10.298;2023-02-15T00:05:17;27.93;;;8.20;;
39140;SDS011;24875;48.436;10.298;2023-02-15T00:07:43;20.30;;;7.70;;
39140;SDS011;24875;48.436;10.298;2023-02-15T00:10:10;30.33;;;8.50;;
39140;SDS011;24875;48.436;10.298;2023-02-15T00:12:37;26.83;;;8.60;;
39140;SDS011;24875;48.436;10.298;2023-02-15T00:15:03;40.53;;;9.00;;
39140;SDS011;24875;48.436;10.298;2023-02-15T00:17:30;31.17;;;8.47;;
39140;SDS011;24875;48.436;10.298;2023-02-15T00:19:56;34.30;;;8.93;;
39140;SDS011;24875;48.436;10.298;2023-02-15T00:22:24;47.20;;;8.70;;
39140;SDS011;24875;48.436;10.298;2023-02-15T00:24:51;19.80;;;8.87;;
39140;SDS011;24875;48.436;10.298;2023-02-15T00:27:17;29.57;;;8.40;;
39140;SDS011;24875;48.436;10.298;2023-02-15T00:29:44;30.90;;;9.30;;
39140;SDS011;24875;48.436;10.298;2023-02-15T00:32:12;37.77;;;8.03;;
39140;SDS011;24875;48.436;10.298;2023-02-15T00:34:38;24.33;;;8.00;;
39140;SDS011;24875;48.436;10.298;2023-02-15T00:37:05;23.43;;;7.87;;
39140;SDS011;24875;48.436;10.298;2023-02-15T00:39:33;29.03;;;9.10;;
39140;SDS011;24875;48.436;10.298;2023-02-15T00:41:59;30.80;;;8.63;;
39140;SDS011;24875;48.436;10.298;2023-02-15T00:44:26;23.40;;;8.53;;
39140;SDS011;24875;48.436;10.298;2023-02-15T00:46:52;17.80;;;7.40;;
39140;SDS011;24875;48.436;10.298;2023-02-15T00:49:19;18.40;;;7.53;;
39140;SDS011;24875;48.436;10.298;2023-02-15T00:51:45;21.20;;;8.20;;
39140;SDS011;24875;48.436;10.298;2023-02-15T00:54:12;29.87;;;7.87;;
39140;SDS011;24875;48.436;10.298;2023-02-15T00:56:39;39.30;;;7.73;;
39140;SDS011;24875;48.436;10.298;2023-02-15T00:59:07;32.53;;;7.83;;
39140;SDS011;24875;48.436;10.298;2023-02-15T01:01:34;32.50;;;8.17;;
39140;SDS011;24875;48.436;10.298;2023-02-15T01:04:01;42.53;;;7.70;;
39140;SDS011;24875;48.436;10.298;2023-02-15T01:06:27;24.80;;;7.13;;
39140;SDS011;24875;48.436;10.298;2023-02-15T01:08:54;21.23;;;7.90;;
39140;SDS011;24875;48.436;10.298;2023-02-15T01:11:21;19.87;;;7.27;;
39140;SDS011;24875;48.436;10.298;2023-02-15T01:13:50;22.20;;;8.30;;
39140;SDS011;24875;48.436;10.298;2023-02-15T01:16:17;37.00;;;8.50;;
39140;SDS011;24875;48.436;10.298;2023-02-15T01:18:44;31.20;;;7.77;;
39140;SDS011;24875;48.436;10.298;2023-02-15T01:21:11;27.17;;;7.10;;
39140;SDS011;24875;48.436;10.298;2023-02-15T01:23:39;17.77;;;7.27;;
39140;SDS011;24875;48.436;10.298;2023-02-15T01:26:06;23.80;;;7.17;;
39140;SDS011;24875;48.436;10.298;2023-02-15T01:28:33;51.43;;;7.47;;
39140;SDS011;24875;48.436;10.298;2023-02-15T01:31:05;16.57;;;6.17;;
39140;SDS011;24875;48.436;10.298;2023-02-15T01:33:33;15.97;;;7.33;;
39140;SDS011;24875;48.436;10.298;2023-02-15T01:36:00;23.90;;;7.80;;
39140;SDS011;24875;48.436;10.298;2023-02-15T01:38:27;36.17;;;7.50;;
39140;SDS011;24875;48.436;10.298;2023-02-15T01:40:53;21.97;;;7.30;;
39140;SDS011;24875;48.436;10.298;2023-02-15T01:43:40;17.53;;;7.33;;
39140;SDS011;24875;48.436;10.298;2023-02-15T01:46:09;22.83;;;7.63;;
39140;SDS011;24875;48.436;10.298;2023-02-15T01:48:39;17.57;;;6.97;;
39140;SDS011;24875;48.436;10.298;2023-02-15T01:51:10;17.87;;;8.07;;
39140;SDS011;24875;48.436;10.298;2023-02-15T01:53:38;17.00;;;7.07;;
39140;SDS011;24875;48.436;10.298;2023-02-15T01:56:09;16.93;;;8.00;;
39140;SDS011;24875;48.436;10.298;2023-02-15T01:58:40;17.27;;;7.57;;
39140;SDS011;24875;48.436;10.298;2023-02-15T02:01:09;27.70;;;7.57;;
39140;SDS011;24875;48.436;10.298;2023-02-15T02:03:42;27.00;;;7.60;;
39140;SDS011;24875;48.436;10.298;2023-02-15T02:06:12;19.13;;;7.57;;
39140;SDS011;24875;48.436;10.298;2023-02-15T02:08:39;28.83;;;7.83;;
39140;SDS011;24875;48.436;10.298;2023-02-15T02:11:09;26.07;;;7.13;;
39140;SDS011;24875;48.436;10.298;2023-02-15T02:13:37;18.63;;;7.20;;
39140;SDS011;24875;48.436;10.298;2023-02-15T02:16:04;23.30;;;8.27;;
39140;SDS011;24875;48.436;10.298;2023-02-15T02:18:41;24.77;;;7.50;;
39140;SDS011;24875;48.436;10.298;2023-02-15T02:21:30;27.73;;;8.20;;
39140;SDS011;24875;48.436;10.298;2023-02-15T02:24:23;39.10;;;7.87;;
39140;SDS011;24875;48.436;10.298;2023-02-15T02:27:18;18.57;;;7.23;;
39140;SDS011;24875;48.436;10.298;2023-02-15T02:36:00;31.20;;;7.57;;
39140;SDS011;24875;48.436;10.298;2023-02-15T02:38:37;20.30;;;7.20;;
39140;SDS011;24875;48.436;10.298;2023-02-15T02:41:13;15.70;;;6.80;;
39140;SDS011;24875;48.436;10.298;2023-02-15T02:43:48;22.37;;;7.57;;
39140;SDS011;24875;48.436;10.298;2023-02-15T02:46:20;15.57;;;7.27;;
39140;SDS011;24875;48.436;10.298;2023-02-15T02:48:52;22.53;;;8.17;;
39140;SDS011;24875;48.436;10.298;2023-02-15T02:51:18;28.03;;;7.67;;
39140;SDS011;24875;48.436;10.298;2023-02-15T02:53:47;17.30;;;7.87;;
39140;SDS011;24875;48.436;10.298;2023-02-15T02:56:20;17.13;;;7.47;;
39140;SDS011;24875;48.436;10.298;2023-02-15T02:58:51;18.17;;;7.73;;
39140;SDS011;24875;48.436;10.298;2023-02-15T03:01:23;17.73;;;7.37;;
39140;SDS011;24875;48.436;10.298;2023-02-15T03:03:55;18.27;;;7.27;;
39140;SDS011;24875;48.436;10.298;2023-02-15T03:06:28;15.97;;;7.40;;
39140;SDS011;24875;48.436;10.298;2023-02-15T03:09:00;23.57;;;7.40;;
39140;SDS011;24875;48.436;10.298;2023-02-15T03:11:32;21.30;;;7.37;;
39140;SDS011;24875;48.436;10.298;2023-02-15T03:13:59;19.90;;;6.60;;
39140;SDS011;24875;48.436;10.298;2023-02-15T03:16:26;16.07;;;6.63;;
39140;SDS011;24875;48.436;10.298;2023-02-15T03:18:55;22.30;;;6.80;;
39140;SDS011;24875;48.436;10.298;2023-02-15T03:21:29;24.83;;;7.33;;
39140;SDS011;24875;48.436;10.298;2023-02-15T03:23:59;16.23;;;6.67;;
39140;SDS011;24875;48.436;10.298;2023-02-15T03:26:30;23.00;;;6.80;;
39140;SDS011;24875;48.436;10.298;2023-02-15T03:28:59;17.43;;;7.07;;
39140;SDS011;24875;48.436;10.298;2023-02-15T03:31:28;14.60;;;6.23;;
39140;SDS011;24875;48.436;10.298;2023-02-15T03:34:00;14.83;;;6.87;;
39140;SDS011;24875;48.436;10.298;2023-02-15T03:36:32;18.37;;;5.80;;
39140;SDS011;24875;48.436;10.298;2023-02-15T03:39:07;17.10;;;6.27;;
39140;SDS011;24875;48.436;10.298;2023-02-15T03:41:42;19.60;;;6.97;;
39140;SDS011;24875;48.436;10.298;2023-02-15T03:44:16;19.00;;;6.97;;
39140;SDS011;24875;48.436;10.298;2023-02-15T03:46:51;20.33;;;6.20;;
39140;SDS011;24875;48.436;10.298;2023-02-15T03:49:24;17.60;;;6.43;;
39140;SDS011;24875;48.436;10.298;2023-02-15T03:51:55;18.27;;;7.30;;
39140;SDS011;24875;48.436;10.298;2023-02-15T03:54:26;29.13;;;7.70;;
39140;SDS011;24875;48.436;10.298;2023-02-15T03:57:11;16.50;;;7.17;;
39140;SDS011;24875;48.436;10.298;2023-02-15T03:59:57;26.80;;;7.00;;
39140;SDS011;24875;48.436;10.298;2023-02-15T04:02:44;8.27;;;3.90;;
39140;SDS011;24875;48.436;10.298;2023-02-15T04:05:23;19.40;;;6.77;;
39140;SDS011;24875;48.436;10.298;2023-02-15T04:07:50;22.73;;;6.93;;
39140;SDS011;24875;48.436;10.298;2023-02-15T04:10:16;15.20;;;6.33;;
39140;SDS011;24875;48.436;10.298;2023-02-15T04:13:01;18.60;;;6.40;;
39140;SDS011;24875;48.436;10.298;2023-02-15T04:15:27;29.30;;;12.83;;
39140;SDS011;24875;48.436;10.298;2023-02-15T04:18:11;53.93;;;16.20;;
39140;SDS011;24875;48.436;10.298;2023-02-15T04:20:40;29.27;;;9.87;;
39140;SDS011;24875;48.436;10.298;2023-02-15T04:23:27;14.03;;;6.83;;
39140;SDS011;24875;48.436;10.298;2023-02-15T04:26:11;16.53;;;5.90;;
39140;SDS011;24875;48.436;10.298;2023-02-15T04:28:37;15.03;;;6.50;;
39140;SDS011;24875;48.436;10.298;2023-02-15T04:31:04;27.63;;;6.50;;
39140;SDS011;24875;48.436;10.298;2023-02-15T04:33:30;24.47;;;7.23;;
39140;SDS011;24875;48.436;10.298;2023-02-15T04:35:58;19.50;;;6.27;;
39140;SDS011;24875;48.436;10.298;2023-02-15T04:38:25;21.80;;;6.67;;
39140;SDS011;24875;48.436;10.298;2023-02-15T04:40:51;14.17;;;6.20;;
39140;SDS011;24875;48.436;10.298;2023-02-15T04:43:18;12.00;;;5.70;;
39140;SDS011;24875;48.436;10.298;2023-02-15T04:45:47;19.13;;;7.17;;
39140;SDS011;24875;48.436;10.298;2023-02-15T04:48:14;26.93;;;10.33;;
39140;SDS011;24875;48.436;10.298;2023-02-15T04:50:41;33.93;;;11.90;;
39140;SDS011;24875;48.436;10.298;2023-02-15T04:53:09;17.77;;;6.43;;
39140;SDS011;24875;48.436;10.298;2023-02-15T04:55:36;27.17;;;7.00;;
39140;SDS011;24875;48.436;10.298;2023-02-15T04:58:03;18.63;;;6.47;;
39140;SDS011;24875;48.436;10.298;2023-02-15T05:00:29;15.60;;;6.17;;
39140;SDS011;24875;48.436;10.298;2023-02-15T05:02:55;12.27;;;5.53;;
39140;SDS011;24875;48.436;10.298;2023-02-15T05:05:22;14.63;;;6.37;;
39140;SDS011;24875;48.436;10.298;2023-02-15T05:07:48;21.37;;;6.67;;
39140;SDS011;24875;48.436;10.298;2023-02-15T05:10:16;30.87;;;7.00;;
39140;SDS011;24875;48.436;10.298;2023-02-15T05:12:43;22.50;;;5.43;;
39140;SDS011;24875;48.436;10.298;2023-02-15T05:15:09;17.87;;;7.50;;
39140;SDS011;24875;48.436;10.298;2023-02-15T05:17:36;13.93;;;6.53;;
39140;SDS011;24875;48.436;10.298;2023-02-15T05:20:03;29.20;;;9.23;;
39140;SDS011;24875;48.436;10.298;2023-02-15T05:22:30;18.00;;;7.90;;
39140;SDS011;24875;48.436;10.298;2023-02-15T05:24:56;24.87;;;7.77;;
39140;SDS011;24875;48.436;10.298;2023-02-15T05:27:42;23.70;;;8.33;;
39140;SDS011;24875;48.436;10.298;2023-02-15T05:30:26;20.70;;;7.63;;
39140;SDS011;24875;48.436;10.298;2023-02-15T05:32:52;14.33;;;7.03;;
39140;SDS011;24875;48.436;10.298;2023-02-15T05:35:19;16.67;;;7.10;;
39140;SDS011;24875;48.436;10.298;2023-02-15T05:37:45;13.93;;;5.47;;
39140;SDS011;24875;48.436;10.298;2023-02-15T05:40:12;14.60;;;6.67;;
39140;SDS011;24875;48.436;10.298;2023-02-15T05:42:38;18.83;;;7.60;;
39140;SDS011;24875;48.436;10.298;2023-02-15T05:45:06;19.20;;;7.87;;
39140;SDS011;24875;48.436;10.298;2023-02-15T05:47:33;22.80;;;7.57;;
39140;SDS011;24875;48.436;10.298;2023-02-15T05:49:59;17.63;;;7.43;;
39140;SDS011;24875;48.436;10.298;2023-02-15T05:52:26;22.53;;;7.43;;
39140;SDS011;24875;48.436;10.298;2023-02-15T05:54:52;37.33;;;8.80;;
39140;SDS011;24875;48.436;10.298;2023-02-15T05:57:19;31.23;;;8.67;;
39140;SDS011;24875;48.436;10.298;2023-02-15T05:59:45;24.60;;;7.40;;
39140;SDS011;24875;48.436;10.298;2023-02-15T06:02:13;20.53;;;7.70;;
39140;SDS011;24875;48.436;10.298;2023-02-15T06:04:39;18.87;;;7.60;;
39140;SDS011;24875;48.436;10.298;2023-02-15T06:07:06;14.83;;;6.57;;
39140;SDS011;24875;48.436;10.298;2023-02-15T06:09:32;21.73;;;7.47;;
39140;SDS011;24875;48.436;10.298;2023-02-15T06:11:59;33.50;;;9.03;;
39140;SDS011;24875;48.436;10.298;2023-02-15T06:14:25;15.93;;;6.90;;
39140;SDS011;24875;48.436;10.298;2023-02-15T06:16:52;40.47;;;7.33;;
39140;SDS011;24875;48.436;10.298;2023-02-15T06:19:19;31.73;;;8.07;;
39140;SDS011;24875;48.436;10.298;2023-02-15T06:21:47;19.67;;;7.20;;
39140;SDS011;24875;48.436;10.298;2023-02-15T06:24:14;12.00;;;6.17;;
39140;SDS011;24875;48.436;10.298;2023-02-15T06:26:40;45.67;;;16.37;;
39140;SDS011;24875;48.436;10.298;2023-02-15T06:29:07;21.13;;;8.83;;
39140;SDS011;24875;48.436;10.298;2023-02-15T06:31:35;25.60;;;9.07;;
39140;SDS011;24875;48.436;10.298;2023-02-15T06:34:02;22.33;;;8.90;;
39140;SDS011;24875;48.436;10.298;2023-02-15T06:36:30;24.87;;;9.13;;
39140;SDS011;24875;48.436;10.298;2023-02-15T06:38:57;22.70;;;7.07;;
39140;SDS011;24875;48.436;10.298;2023-02-15T06:41:24;16.10;;;6.60;;
39140;SDS011;24875;48.436;10.298;2023-02-15T06:43:50;27.63;;;6.73;;
39140;SDS011;24875;48.436;10.298;2023-02-15T06:46:17;14.83;;;5.93;;
39140;SDS011;24875;48.436;10.298;2023-02-15T06:48:43;18.97;;;6.33;;
39140;SDS011;24875;48.436;10.298;2023-02-15T06:51:10;10.30;;;5.27;;
39140;SDS011;24875;48.436;10.298;2023-02-15T06:53:37;17.53;;;6.53;;
39140;SDS011;24875;48.436;10.298;2023-02-15T06:56:06;13.17;;;6.53;;
39140;SDS011;24875;48.436;10.298;2023-02-15T06:58:34;20.40;;;7.30;;
39140;SDS011;24875;48.436;10.298;2023-02-15T07:01:00;16.13;;;6.30;;
39140;SDS011;24875;48.436;10.298;2023-02-15T07:03:28;16.37;;;6.93;;
39140;SDS011;24875;48.436;10.298;2023-02-15T07:05:54;26.80;;;6.87;;
39140;SDS011;24875;48.436;10.298;2023-02-15T07:08:21;27.37;;;7.63;;
39140;SDS011;24875;48.436;10.298;2023-02-15T07:10:49;17.47;;;5.37;;
39140;SDS011;24875;48.436;10.298;2023-02-15T07:13:17;15.83;;;7.17;;
39140;SDS011;24875;48.436;10.298;2023-02-15T07:15:43;20.80;;;7.47;;
39140;SDS011;24875;48.436;10.298;2023-02-15T07:18:10;20.67;;;7.53;;
39140;SDS011;24875;48.436;10.298;2023-02-15T07:20:37;17.60;;;7.87;;
39140;SDS011;24875;48.436;10.298;2023-02-15T07:23:05;19.23;;;8.57;;
39140;SDS011;24875;48.436;10.298;2023-02-15T07:25:32;23.30;;;8.07;;
39140;SDS011;24875;48.436;10.298;2023-02-15T07:28:00;18.37;;;7.97;;
39140;SDS011;24875;48.436;10.298;2023-02-15T07:30:28;18.73;;;7.33;;
39140;SDS011;24875;48.436;10.298;2023-02-15T07:32:56;20.80;;;8.63;;
39140;SDS011;24875;48.436;10.298;2023-02-15T07:35:37;28.13;;;8.23;;
39140;SDS011;24875;48.436;10.298;2023-02-15T07:38:03;14.77;;;7.07;;
39140;SDS011;24875;48.436;10.298;2023-02-15T07:40:29;17.50;;;6.70;;
39140;SDS011;24875;48.436;10.298;2023-02-15T07:42:57;16.00;;;6.63;;
39140;SDS011;24875;48.436;10.298;2023-02-15T07:45:25;16.23;;;7.13;;
39140;SDS011;24875;48.436;10.298;2023-02-15T07:47:52;21.37;;;7.70;;
39140;SDS011;24875;48.436;10.298;2023-02-15T07:50:18;16.83;;;8.10;;
39140;SDS011;24875;48.436;10.298;2023-02-15T07:52:45;18.00;;;7.07;;
39140;SDS011;24875;48.436;10.298;2023-02-15T07:55:11;18.07;;;7.90;;
39140;SDS011;24875;48.436;10.298;2023-02-15T07:57:41;25.00;;;7.73;;
39140;SDS011;24875;48.436;10.298;2023-02-15T08:00:08;28.63;;;9.03;;
39140;SDS011;24875;48.436;10.298;2023-02-15T08:02:38;25.47;;;8.80;;
39140;SDS011;24875;48.436;10.298;2023-02-15T08:05:04;28.60;;;7.13;;
39140;SDS011;24875;48.436;10.298;2023-02-15T08:07:31;24.87;;;7.67;;
39140;SDS011;24875;48.436;10.298;2023-02-15T08:09:58;19.97;;;7.80;;
39140;SDS011;24875;48.436;10.298;2023-02-15T08:12:25;18.53;;;7.90;;
39140;SDS011;24875;48.436;10.298;2023-02-15T08:14:52;30.67;;;7.87;;
39140;SDS011;24875;48.436;10.298;2023-02-15T08:17:18;24.20;;;7.70;;
39140;SDS011;24875;48.436;10.298;2023-02-15T08:19:46;30.73;;;7.80;;
39140;SDS011;24875;48.436;10.298;2023-02-15T08:22:13;23.60;;;8.40;;
39140;SDS011;24875;48.436;10.298;2023-02-15T08:24:40;23.10;;;7.93;;
39140;SDS011;24875;48.436;10.298;2023-02-15T08:27:08;21.73;;;8.07;;
39140;SDS011;24875;48.436;10.298;2023-02-15T08:29:36;32.00;;;8.73;;
39140;SDS011;24875;48.436;10.298;2023-02-15T08:32:04;28.00;;;9.43;;
39140;SDS011;24875;48.436;10.298;2023-02-15T08:34:33;33.70;;;7.83;;
39140;SDS011;24875;48.436;10.298;2023-02-15T08:37:02;26.20;;;9.20;;
39140;SDS011;24875;48.436;10.298;2023-02-15T08:39:30;22.80;;;9.00;;
39140;SDS011;24875;48.436;10.298;2023-02-15T08:41:57;24.63;;;9.23;;
39140;SDS011;24875;48.436;10.298;2023-02-15T08:44:24;22.00;;;8.30;;
39140;SDS011;24875;48.436;10.298;2023-02-15T08:46:50;37.07;;;9.27;;
39140;SDS011;24875;48.436;10.298;2023-02-15T08:49:18;23.73;;;9.50;;
39140;SDS011;24875;48.436;10.298;2023-02-15T08:51:46;27.03;;;9.57;;
39140;SDS011;24875;48.436;10.298;2023-02-15T08:54:15;22.67;;;8.60;;
39140;SDS011;24875;48.436;10.298;2023-02-15T08:56:43;25.23;;;9.27;;
39140;SDS011;24875;48.436;10.298;2023-02-15T08:59:12;28.40;;;10.27;;
39140;SDS011;24875;48.436;10.298;2023-02-15T09:01:40;21.43;;;9.47;;
39140;SDS011;24875;48.436;10.298;2023-02-15T09:04:07;22.00;;;8.27;;
39140;SDS011;24875;48.436;10.298;2023-02-15T09:06:34;23.83;;;9.07;;
39140;SDS011;24875;48.436;10.298;2023-02-15T09:09:02;36.03;;;12.17;;
39140;SDS011;24875;48.436;10.298;2023-02-15T09:11:33;33.70;;;8.73;;
39140;SDS011;24875;48.436;10.298;2023-02-15T09:14:01;25.33;;;9.07;;
39140;SDS011;24875;48.436;10.298;2023-02-15T09:16:30;22.20;;;9.80;;
39140;SDS011;24875;48.436;10.298;2023-02-15T09:18:58;28.30;;;11.50;;
39140;SDS011;24875;48.436;10.298;2023-02-15T09:21:26;27.97;;;9.87;;
39140;SDS011;24875;48.436;10.298;2023-02-15T09:23:55;38.90;;;10.50;;
39140;SDS011;24875;48.436;10.298;2023-02-15T09:26:23;32.20;;;9.83;;
39140;SDS011;24875;48.436;10.298;2023-02-15T09:28:52;28.87;;;10.30;;
39140;SDS011;24875;48.436;10.298;2023-02-15T09:31:21;30.53;;;10.40;;
39140;SDS011;24875;48.436;10.298;2023-02-15T09:33:49;34.47;;;11.07;;
39140;SDS011;24875;48.436;10.298;2023-02-15T09:36:17;23.53;;;9.63;;
39140;SDS011;24875;48.436;10.298;2023-02-15T09:38:45;30.13;;;10.20;;
39140;SDS011;24875;48.436;10.298;2023-02-15T09:41:19;25.73;;;10.93;;
39140;SDS011;24875;48.436;10.298;2023-02-15T09:44:01;26.50;;;9.53;;
39140;SDS011;24875;48.436;10.298;2023-02-15T09:46:41;28.33;;;10.07;;
39140;SDS011;24875;48.436;10.298;2023-02-15T09:49:21;24.47;;;10.20;;
39140;SDS011;24875;48.436;10.298;2023-02-15T09:52:06;26.33;;;10.10;;
39140;SDS011;24875;48.436;10.298;2023-02-15T09:54:48;28.70;;;10.57;;
39140;SDS011;24875;48.436;10.298;2023-02-15T09:57:32;31.33;;;11.17;;
39140;SDS011;24875;48.436;10.298;2023-02-15T10:00:10;27.83;;;10.03;;
39140;SDS011;24875;48.436;10.298;2023-02-15T10:02:52;27.67;;;11.07;;
39140;SDS011;24875;48.436;10.298;2023-02-15T10:05:36;33.10;;;11.40;;
39140;SDS011;24875;48.436;10.298;2023-02-15T10:08:16;29.53;;;10.77;;
39140;SDS011;24875;48.436;10.298;2023-02-15T10:11:06;29.87;;;11.40;;
39140;SDS011;24875;48.436;10.298;2023-02-15T10:13:54;28.70;;;10.73;;
39140;SDS011;24875;48.436;10.298;2023-02-15T10:16:35;24.83;;;9.83;;
39140;SDS011;24875;48.436;10.298;2023-02-15T10:19:11;30.97;;;10.70;;
39140;SDS011;24875;48.436;10.298;2023-02-15T10:21:48;32.47;;;12.13;;
39140;SDS011;24875;48.436;10.298;2023-02-15T10:24:37;30.23;;;11.50;;
39140;SDS011;24875;48.436;10.298;2023-02-15T10:27:12;29.37;;;10.97;;
39140;SDS011;24875;48.436;10.298;2023-02-15T10:29:43;29.03;;;11.03;;
39140;SDS011;24875;48.436;10.298;2023-02-15T10:32:20;24.57;;;10.33;;
39140;SDS011;24875;48.436;10.298;2023-02-15T10:34:50;29.23;;;10.53;;
39140;SDS011;24875;48.436;10.298;2023-02-15T10:37:27;26.63;;;10.03;;
39140;SDS011;24875;48.436;10.298;2023-02-15T10:40:15;29.07;;;10.43;;
39140;SDS011;24875;48.436;10.298;2023-02-15T10:42:53;29.30;;;12.13;;
39140;SDS011;24875;48.436;10.298;2023-02-15T10:45:32;31.33;;;11.33;;
39140;SDS011;24875;48.436;10.298;2023-02-15T10:48:19;30.63;;;11.77;;
39140;SDS011;24875;48.436;10.298;2023-02-15T10:50:55;35.13;;;11.13;;
39140;SDS011;24875;48.436;10.298;2023-02-15T10:53:34;39.50;;;12.50;;
39140;SDS011;24875;48.436;10.298;2023-02-15T10:56:12;33.40;;;11.43;;
39140;SDS011;24875;48.436;10.298;2023-02-15T10:58:49;23.40;;;10.40;;
39140;SDS011;24875;48.436;10.298;2023-02-15T11:01:27;34.80;;;12.87;;
39140;SDS011;24875;48.436;10.298;2023-02-15T11:04:17;37.07;;;13.10;;
39140;SDS011;24875;48.436;10.298;2023-02-15T11:07:07;32.37;;;11.60;;
39140;SDS011;24875;48.436;10.298;2023-02-15T11:09:45;35.43;;;13.90;;
39140;SDS011;24875;48.436;10.298;2023-02-15T11:12:16;37.03;;;13.00;;
39140;SDS011;24875;48.436;10.298;2023-02-15T11:14:46;37.27;;;12.50;;
39140;SDS011;24875;48.436;10.298;2023-02-15T11:17:19;30.90;;;11.97;;
39140;SDS011;24875;48.436;10.298;2023-02-15T11:19:53;32.33;;;12.37;;
39140;SDS011;24875;48.436;10.298;2023-02-15T11:22:26;28.37;;;11.20;;
39140;SDS011;24875;48.436;10.298;2023-02-15T11:24:53;36.90;;;12.80;;
39140;SDS011;24875;48.436;10.298;2023-02-15T11:27:23;33.70;;;11.83;;
39140;SDS011;24875;48.436;10.298;2023-02-15T11:29:55;32.13;;;12.10;;
39140;SDS011;24875;48.436;10.298;2023-02-15T11:32:26;39.33;;;14.10;;
39140;SDS011;24875;48.436;10.298;2023-02-15T11:34:58;34.17;;;12.90;;
39140;SDS011;24875;48.436;10.298;2023-02-15T11:37:32;34.80;;;11.70;;
39140;SDS011;24875;48.436;10.298;2023-02-15T11:40:03;35.80;;;12.97;;
39140;SDS011;24875;48.436;10.298;2023-02-15T11:42:43;35.27;;;13.07;;
39140;SDS011;24875;48.436;10.298;2023-02-15T11:45:16;38.47;;;12.30;;
39140;SDS011;24875;48.436;10.298;2023-02-15T11:47:47;32.10;;;12.20;;
39140;SDS011;24875;48.436;10.298;2023-02-15T11:50:16;30.33;;;12.13;;
39140;SDS011;24875;48.436;10.298;2023-02-15T11:52:47;31.70;;;12.63;;
39140;SDS011;24875;48.436;10.298;2023-02-15T11:55:17;34.10;;;13.00;;
39140;SDS011;24875;48.436;10.298;2023-02-15T11:57:51;36.73;;;12.57;;
39140;SDS011;24875;48.436;10.298;2023-02-15T12:00:25;32.80;;;12.93;;
39140;SDS011;24875;48.436;10.298;2023-02-15T12:03:01;34.77;;;12.73;;
39140;SDS011;24875;48.436;10.298;2023-02-15T12:05:35;32.70;;;12.70;;
39140;SDS011;24875;48.436;10.298;2023-02-15T12:08:09;32.73;;;12.53;;
39140;SDS011;24875;48.436;10.298;2023-02-15T12:10:42;36.17;;;14.10;;
39140;SDS011;24875;48.436;10.298;2023-02-15T12:13:17;33.57;;;13.30;;
39140;SDS011;24875;48.436;10.298;2023-02-15T12:15:45;30.23;;;13.27;;
39140;SDS011;24875;48.436;10.298;2023-02-15T12:18:19;41.93;;;14.30;;
39140;SDS011;24875;48.436;10.298;2023-02-15T12:20:54;35.20;;;13.40;;
39140;SDS011;24875;48.436;10.298;2023-02-15T12:23:24;34.13;;;12.77;;
39140;SDS011;24875;48.436;10.298;2023-02-15T12:25:55;29.80;;;13.10;;
39140;SDS011;24875;48.436;10.298;2023-02-15T12:28:24;33.43;;;13.93;;
39140;SDS011;24875;48.436;10.298;2023-02-15T12:30:53;34.63;;;12.70;;
39140;SDS011;24875;48.436;10.298;2023-02-15T12:33:24;34.30;;;13.87;;
39140;SDS011;24875;48.436;10.298;2023-02-15T12:35:56;31.00;;;13.37;;
39140;SDS011;24875;48.436;10.298;2023-02-15T12:38:26;35.83;;;14.77;;
39140;SDS011;24875;48.436;10.298;2023-02-15T12:40:57;37.97;;;14.53;;
39140;SDS011;24875;48.436;10.298;2023-02-15T12:43:26;32.33;;;12.67;;
39140;SDS011;24875;48.436;10.298;2023-02-15T12:46:02;31.10;;;12.63;;
39140;SDS011;24875;48.436;10.298;2023-02-15T12:48:40;30.00;;;12.47;;
39140;SDS011;24875;48.436;10.298;2023-02-15T12:51:08;34.80;;;14.67;;
39140;SDS011;24875;48.436;10.298;2023-02-15T12:53:39;40.67;;;13.60;;
39140;SDS011;24875;48.436;10.298;2023-02-15T12:56:07;36.63;;;13.97;;
39140;SDS011;24875;48.436;10.298;2023-02-15T12:58:35;23.67;;;9.17;;
39140;SDS011;24875;48.436;10.298;2023-02-15T13:01:04;36.00;;;13.67;;
39140;SDS011;24875;48.436;10.298;2023-02-15T13:03:37;35.80;;;13.53;;
39140;SDS011;24875;48.436;10.298;2023-02-15T13:06:06;32.60;;;12.80;;
39140;SDS011;24875;48.436;10.298;2023-02-15T13:08:35;33.97;;;13.43;;
39140;SDS011;24875;48.436;10.298;2023-02-15T13:11:11;38.40;;;13.60;;
39140;SDS011;24875;48.436;10.298;2023-02-15T13:13:47;29.70;;;12.77;;
39140;SDS011;24875;48.436;10.298;2023-02-15T13:16:18;34.70;;;13.23;;
39140;SDS011;24875;48.436;10.298;2023-02-15T13:18:49;35.87;;;14.10;;
39140;SDS011;24875;48.436;10.298;2023-02-15T13:21:18;39.10;;;13.93;;
39140;SDS011;24875;48.436;10.298;2023-02-15T13:23:50;33.80;;;13.00;;
39140;SDS011;24875;48.436;10.298;2023-02-15T13:26:19;38.03;;;14.27;;
39140;SDS011;24875;48.436;10.298;2023-02-15T13:28:49;37.13;;;14.07;;
39140;SDS011;24875;48.436;10.298;2023-02-15T13:31:19;38.57;;;15.53;;
39140;SDS011;24875;48.436;10.298;2023-02-15T13:33:49;34.63;;;14.60;;
39140;SDS011;24875;48.436;10.298;2023-02-15T13:36:21;33.07;;;13.97;;
39140;SDS011;24875;48.436;10.298;2023-02-15T13:38:59;38.93;;;15.63;;
39140;SDS011;24875;48.436;10.298;2023-02-15T13:41:50;34.83;;;14.13;;
39140;SDS011;24875;48.436;10.298;2023-02-15T13:44:25;37.63;;;14.00;;
39140;SDS011;24875;48.436;10.298;2023-02-15T13:47:06;37.93;;;14.73;;
39140;SDS011;24875;48.436;10.298;2023-02-15T13:49:45;31.87;;;13.80;;
39140;SDS011;24875;48.436;10.298;2023-02-15T13:52:22;31.67;;;14.13;;
39140;SDS011;24875;48.436;10.298;2023-02-15T13:54:55;33.37;;;13.93;;
39140;SDS011;24875;48.436;10.298;2023-02-15T13:57:41;29.87;;;13.80;;
39140;SDS011;24875;48.436;10.298;2023-02-15T14:00:22;33.27;;;14.33;;
39140;SDS011;24875;48.436;10.298;2023-02-15T14:06:03;38.87;;;14.77;;
39140;SDS011;24875;48.436;10.298;2023-02-15T14:08:47;30.47;;;13.57;;
39140;SDS011;24875;48.436;10.298;2023-02-15T14:11:27;33.47;;;12.97;;
39140;SDS011;24875;48.436;10.298;2023-02-15T14:14:23;36.27;;;14.80;;
39140;SDS011;24875;48.436;10.298;2023-02-15T14:17:06;33.30;;;13.57;;
39140;SDS011;24875;48.436;10.298;2023-02-15T14:19:43;29.17;;;13.00;;
39140;SDS011;24875;48.436;10.298;2023-02-15T14:22:17;30.03;;;13.50;;
39140;SDS011;24875;48.436;10.298;2023-02-15T14:24:53;33.97;;;14.23;;
39140;SDS011;24875;48.436;10.298;2023-02-15T14:27:27;33.80;;;14.60;;
39140;SDS011;24875;48.436;10.298;2023-02-15T14:30:13;32.33;;;13.57;;
39140;SDS011;24875;48.436;10.298;2023-02-15T14:32:45;35.40;;;13.47;;
39140;SDS011;24875;48.436;10.298;2023-02-15T14:35:16;38.53;;;13.70;;
39140;SDS011;24875;48.436;10.298;2023-02-15T14:37:46;31.00;;;13.43;;
39140;SDS011;24875;48.436;10.298;2023-02-15T14:40:18;34.73;;;13.87;;
39140;SDS011;24875;48.436;10.298;2023-02-15T14:43:23;31.10;;;14.00;;
39140;SDS011;24875;48.436;10.298;2023-02-15T14:45:58;32.83;;;13.13;;
39140;SDS011;24875;48.436;10.298;2023-02-15T14:48:30;30.10;;;14.00;;